Latest Weather Observations for Lake Macquarie - Cooranbong

IDN60801

Issued at 9:35 pm EST Wednesday 17 September 2014 (issued every 30 minutes, with the page automatically refreshed every 10 minutes)

About weather observations | Map of weather stations | Latest weather observations for NSW | Other Formats
Station Details ID: 061412 Name: LAKE MACQUARIE AWS Lat: -33.09 Lon: 151.46 Height: 6.0 m
Data from the previous 72 hours. | See also: Recent months at Lake Macquarie - Cooranbong
Date/Time
EST
Temp
°C
App
Temp
°C
Dew
Point
Rel
Hum
%
Delta-T
°C
Wind Press
QNH
hPa
Press
MSL
hPa
Rain
since 9 am
mm
Dir
 
Spd
km/h
Gust
km/h
Spd
kts
Gust
kts
17/09:30pm 9.4 8.6 6.5 82 1.3 NNW 0 4 0 2 1015.3 1015.3 0.0
17/09:00pm 9.7 8.8 6.1 78 1.7 N 0 0 0 0 1015.0 1015.0 0.0
17/08:30pm 10.8 9.9 6.2 73 2.1 CALM 0 0 0 0 1014.7 1014.7 0.0
17/08:00pm 11.2 9.8 5.7 69 2.5 N 2 6 1 3 1014.3 1014.3 0.0
17/07:30pm 12.7 11.6 4.9 59 3.6 CALM 0 4 0 2 1014.2 1014.2 0.0
17/07:00pm 14.1 12.2 4.9 54 4.3 NNW 4 6 2 3 1013.8 1013.8 0.0
17/06:30pm 16.8 14.4 2.0 37 6.6 W 4 7 2 4 1013.4 1013.4 0.0
17/06:00pm 18.6 15.3 0.2 29 8.1 WSW 7 13 4 7 1013.0 1013.0 0.0
17/05:30pm 19.6 16.0 0.6 28 8.5 WSW 9 20 5 11 1012.6 1012.6 0.0
17/05:00pm 20.8 16.7 0.1 25 9.2 W 11 22 6 12 1012.0 1012.0 0.0
17/04:30pm 20.3 17.4 1.2 28 8.7 SW 6 9 3 5 1011.5 1011.5 0.0
17/04:00pm 22.1 18.0 0.0 23 9.9 W 11 20 6 11 1011.0 1011.0 0.0
17/03:30pm 22.4 18.0 0.3 23 10.0 WSW 13 24 7 13 1010.5 1010.5 0.0
17/03:00pm 22.2 17.8 0.1 23 10.0 WSW 13 26 7 14 1010.2 1010.2 0.0
17/02:30pm 22.7 17.9 0.5 23 10.1 WNW 15 26 8 14 1010.1 1010.1 0.0
17/02:00pm 22.0 17.6 0.5 24 9.8 W 13 26 7 14 1010.1 1010.1 0.0
17/01:30pm 21.8 17.8 0.4 24 9.7 WNW 11 30 6 16 1010.5 1010.5 0.0
17/01:00pm 21.9 18.2 2.1 27 9.3 ENE 11 22 6 12 1010.6 1010.6 0.0
17/12:30pm 21.4 17.5 1.1 26 9.3 W 11 19 6 10 1010.9 1010.9 0.0
17/12:00pm 20.9 16.6 1.2 27 9.0 W 13 26 7 14 1011.3 1011.3 0.0
17/11:30am 20.1 16.1 0.5 27 8.7 W 11 19 6 10 1011.8 1011.8 0.0
17/11:00am 20.5 17.2 2.3 30 8.5 WSW 9 20 5 11 1012.2 1012.2 0.0
17/10:30am 19.4 14.3 0.9 29 8.3 W 17 28 9 15 1012.6 1012.6 0.0
17/10:00am 19.1 15.2 1.1 30 8.1 W 11 22 6 12 1012.8 1012.8 0.0
17/09:30am 19.0 15.4 2.8 34 7.5 W 11 19 6 10 1013.3 1013.3 0.0
17/09:00am 18.4 14.8 2.7 35 7.2 WSW 11 20 6 11 1013.4 1013.4 0.0
17/08:30am 18.1 14.9 2.8 36 7.0 WSW 9 17 5 9 1013.5 1013.5 0.0
17/08:00am 17.5 14.8 3.8 40 6.4 W 7 22 4 12 1013.2 1013.2 0.0
17/07:30am 16.9 14.5 4.3 43 5.9 W 6 9 3 5 1013.2 1013.2 0.0
17/07:00am 15.9 13.9 6.1 52 4.7 W 6 15 3 8 1012.7 1012.7 0.0
17/06:30am 13.6 12.3 7.8 68 2.9 WSW 4 9 2 5 1012.3 1012.3 0.0
17/06:00am 12.9 11.8 6.9 67 2.9 N 2 4 1 2 1011.9 1011.9 0.0
17/05:30am 14.4 12.4 7.0 61 3.6 N 7 11 4 6 1011.6 1011.6 0.0
17/05:00am 13.9 11.9 7.2 64 3.3 N 7 11 4 6 1011.1 1011.1 0.0
17/04:30am 13.6 11.7 6.5 62 3.4 N 6 11 3 6 1010.6 1010.6 0.0
17/04:00am 15.5 13.3 6.2 54 4.5 NNW 7 15 4 8 1010.5 1010.5 0.0
17/03:30am 15.7 13.4 5.9 52 4.7 NW 7 19 4 10 1010.1 1010.1 0.0
17/03:00am 15.9 13.2 5.8 51 4.9 WNW 9 20 5 11 1010.2 1010.2 0.0
17/02:30am 15.9 13.2 5.8 51 4.9 NW 9 19 5 10 1010.1 1010.1 0.0
17/02:00am 15.3 13.6 5.8 53 4.6 NNW 4 11 2 6 1010.3 1010.3 0.0
17/01:30am 15.6 13.3 5.8 52 4.7 NNW 7 15 4 8 1010.3 1010.3 0.0
17/01:00am 15.9 13.7 6.1 52 4.7 NW 7 17 4 9 1010.6 1010.6 0.0
17/12:30am 15.7 13.5 6.2 53 4.6 NW 7 13 4 7 1010.8 1010.8 0.0
17/12:00am 16.3 13.7 5.9 50 5.0 NW 9 17 5 9 1011.0 1011.0 0.0
 
Date/Time
EST
Temp
°C
App
Temp
°C
Dew
Point
Rel
Hum
%
Delta-T
°C
Wind Press
QNH
hPa
Press
MSL
hPa
Rain
since 9 am
mm
Dir
 
Spd
km/h
Gust
km/h
Spd
kts
Gust
kts
16/11:30pm 16.2 13.9 5.8 50 5.0 WNW 7 15 4 8 1010.9 1010.9 0.0
16/11:00pm 16.8 14.4 5.4 47 5.5 WNW 7 15 4 8 1010.8 1010.8 0.0
16/10:30pm 17.5 14.4 5.4 45 5.8 W 11 20 6 11 1011.0 1011.0 0.0
16/10:00pm 17.8 15.1 5.4 44 6.0 WNW 9 15 5 8 1010.9 1010.9 0.0
16/09:30pm 18.7 15.1 4.8 40 6.7 W 13 26 7 14 1010.7 1010.7 0.0
16/09:00pm 19.4 15.3 4.4 37 7.2 WNW 15 26 8 14 1010.3 1010.3 0.0
16/08:30pm 19.9 16.2 4.4 36 7.5 WNW 13 22 7 12 1009.9 1009.9 0.0
16/08:00pm 20.2 16.5 4.3 35 7.7 W 13 24 7 13 1009.7 1009.7 0.0
16/07:30pm 20.6 17.6 4.2 34 7.9 W 9 22 5 12 1009.4 1009.4 0.0
16/07:00pm 21.3 17.2 4.4 33 8.2 W 15 24 8 13 1008.9 1008.9 0.0
16/06:30pm 21.7 18.0 4.7 33 8.3 W 13 22 7 12 1008.4 1008.4 0.0
16/06:00pm 22.1 18.6 3.7 30 8.9 W 11 22 6 12 1007.7 1007.7 0.0
16/05:30pm 22.7 19.3 4.2 30 9.1 W 11 20 6 11 1007.1 1007.1 0.0
16/05:00pm 23.4 19.1 3.4 27 9.7 W 15 28 8 15 1006.6 1006.6 0.0
16/04:30pm 24.1 20.6 3.4 26 10.1 W 11 17 6 9 1006.2 1006.2 0.0
16/04:00pm 24.8 20.3 2.3 23 10.8 W 15 33 8 18 1005.8 1005.8 0.0
16/03:30pm 25.9 21.6 3.2 23 11.1 NW 15 33 8 18 1005.6 1005.6 0.0
16/03:00pm 25.6 21.5 4.1 25 10.7 NNW 15 30 8 16 1005.4 1005.4 0.0
16/02:30pm 25.8 20.6 2.5 22 11.3 NNW 19 37 10 20 1005.4 1005.4 0.0
16/02:00pm 26.4 23.2 6.9 29 10.3 NNW 13 24 7 13 1005.5 1005.5 0.0
16/01:30pm 25.5 22.0 7.1 31 9.7 NNW 15 30 8 16 1006.0 1006.0 0.0
16/01:00pm 25.2 23.5 9.9 38 8.5 NNW 9 13 5 7 1006.4 1006.4 0.0
16/12:30pm 24.2 22.9 10.1 41 7.8 ESE 7 13 4 7 1007.1 1007.1 0.0
16/12:00pm 23.2 22.8 13.1 53 5.8 NNE 7 13 4 7 1007.8 1007.8 0.0
16/11:30am 22.0 22.5 13.9 60 4.7 ENE 4 9 2 5 1008.6 1008.6 0.0
16/11:00am 20.9 21.0 13.8 64 4.1 NE 6 11 3 6 1009.2 1009.2 0.0
16/10:30am 21.2 21.1 13.9 63 4.2 NNE 7 15 4 8 1009.6 1009.6 0.0
16/10:00am 20.4 19.7 13.1 63 4.2 N 9 19 5 10 1010.0 1010.0 0.0
16/09:30am 19.7 20.4 14.5 72 3.0 NNE 4 13 2 7 1010.6 1010.6 0.0
16/09:00am 18.1 18.4 14.4 79 2.1 N 6 9 3 5 1011.1 1011.1 0.4
16/08:30am 17.7 18.1 14.8 83 1.7 N 6 7 3 4 1011.2 1011.2 0.4
16/08:00am 15.4 15.5 13.8 90 0.9 NNW 6 7 3 4 1011.6 1011.6 0.4
16/07:30am 13.8 14.1 13.3 97 0.3 NW 4 4 2 2 1011.9 1011.9 0.4
16/07:00am 12.7 13.0 12.2 97 0.3 NNW 2 6 1 3 1012.1 1012.1 0.4
16/06:30am 12.7 12.3 12.4 98 0.2 S 6 9 3 5 1012.3 1012.3 0.4
16/06:00am 12.3 12.5 11.8 97 0.3 WNW 2 6 1 3 1013.3 1013.3 0.4
16/05:30am 11.7 12.1 11.2 97 0.3 CALM 0 4 0 2 1013.5 1013.5 0.4
16/05:00am 11.5 11.8 10.9 96 0.3 CALM 0 0 0 0 1012.8 1012.8 0.2
16/04:30am 11.3 11.5 10.7 96 0.3 CALM 0 0 0 0 1012.3 1012.3 0.2
16/04:00am 11.3 11.5 10.7 96 0.3 CALM 0 0 0 0 1012.3 1012.3 0.2
16/03:30am 11.6 11.9 10.8 95 0.4 CALM 0 0 0 0 1012.2 1012.2 0.2
16/03:00am 11.9 12.3 11.1 95 0.4 CALM 0 2 0 1 1012.5 1012.5 0.2
16/02:30am 11.9 12.2 11.0 94 0.5 CALM 0 0 0 0 1012.9 1012.9 0.2
16/02:00am 12.5 12.9 11.4 93 0.6 CALM 0 0 0 0 1013.3 1013.3 0.2
16/01:30am 13.4 13.0 12.3 93 0.6 NW 6 11 3 6 1014.0 1014.0 0.2
16/01:00am 13.0 13.3 12.2 95 0.4 SE 2 6 1 3 1014.9 1014.9 0.0
16/12:30am 12.9 12.8 12.0 94 0.5 WSW 4 6 2 3 1015.7 1015.7 0.0
16/12:00am 12.6 13.2 11.8 95 0.4 CALM 0 0 0 0 1015.4 1015.4 0.0
 
Date/Time
EST
Temp
°C
App
Temp
°C
Dew
Point
Rel
Hum
%
Delta-T
°C
Wind Press
QNH
hPa
Press
MSL
hPa
Rain
since 9 am
mm
Dir
 
Spd
km/h
Gust
km/h
Spd
kts
Gust
kts
15/11:30pm 12.2 12.6 11.3 94 0.5 CALM 0 0 0 0 1015.5 1015.5 0.0
15/11:00pm 12.2 12.6 11.3 94 0.5 CALM 0 0 0 0 1015.7 1015.7 0.0
15/10:30pm 12.2 12.6 11.1 93 0.6 CALM 0 0 0 0 1016.0 1016.0 0.0
15/10:00pm 12.6 12.8 11.7 94 0.5 W 2 11 1 6 1016.2 1016.2 0.0
15/09:30pm 12.1 12.5 11.2 94 0.5 CALM 0 0 0 0 1016.6 1016.6 0.0
15/09:00pm 12.1 12.1 11.2 94 0.5 N 2 4 1 2 1016.5 1016.5 0.0
15/08:30pm 12.3 12.6 11.0 92 0.7 CALM 0 0 0 0 1016.6 1016.6 0.0
15/08:00pm 12.6 12.9 11.0 90 0.8 CALM 0 0 0 0 1016.5 1016.5 0.0
15/07:30pm 13.5 13.9 11.2 86 1.2 CALM 0 0 0 0 1016.4 1016.4 0.0
15/07:00pm 14.8 15.3 11.6 81 1.7 CALM 0 2 0 1 1015.9 1015.9 0.0
15/06:30pm 15.6 15.6 11.2 75 2.4 NE 2 6 1 3 1015.9 1015.9 0.0
15/06:00pm 16.8 16.4 11.1 69 3.1 ENE 4 6 2 3 1015.8 1015.8 0.0
15/05:30pm 17.3 16.4 11.3 68 3.2 E 7 13 4 7 1015.6 1015.6 0.0
15/05:00pm 17.7 16.8 11.5 67 3.4 E 7 13 4 7 1015.5 1015.5 0.0
15/04:30pm 18.3 16.7 11.6 65 3.7 E 11 17 6 9 1015.3 1015.3 0.0
15/04:00pm 18.3 16.7 11.4 64 3.8 E 11 20 6 11 1015.3 1015.3 0.0
15/03:30pm 18.8 17.3 11.9 64 3.8 ESE 11 19 6 10 1015.3 1015.3 0.0
15/03:00pm 19.3 18.1 11.6 61 4.2 E 9 15 5 8 1015.2 1015.2 0.0
15/02:30pm 19.7 18.0 12.5 63 4.0 E 13 20 7 11 1015.3 1015.3 0.0
15/02:00pm 19.9 18.4 11.9 60 4.4 E 11 19 6 10 1015.5 1015.5 0.0
15/01:30pm 20.1 18.7 13.3 65 3.9 ESE 13 19 7 10 1015.7 1015.7 0.0
15/01:00pm 19.8 18.3 11.8 60 4.4 ENE 11 24 6 13 1015.9 1015.9 0.0
15/12:30pm 20.3 19.3 12.3 60 4.5 E 9 19 5 10 1016.2 1016.2 0.0
15/12:00pm 20.8 20.3 12.5 59 4.7 E 7 15 4 8 1016.5 1016.5 0.0
15/11:30am 20.6 19.4 11.5 56 5.0 E 9 17 5 9 1016.8 1016.8 0.0
15/11:00am 20.4 18.7 11.3 56 5.0 ESE 11 17 6 9 1017.3 1017.3 0.0
15/10:30am 20.1 20.2 12.8 63 4.1 SSE 4 13 2 7 1017.8 1017.8 0.0
15/10:00am 20.0 19.5 12.0 60 4.4 E 6 9 3 5 1018.2 1018.2 0.0
15/09:30am 19.6 19.7 12.6 64 3.9 SSE 4 7 2 4 1018.5 1018.5 0.0
15/09:00am 19.0 19.8 13.6 71 3.1 ENE 2 6 1 3 1018.7 1018.7 0.0
15/08:30am 16.7 17.0 13.4 81 1.9 W 4 7 2 4 1019.0 1019.0 0.0
15/08:00am 14.8 16.3 14.6 99 0.1 CALM 0 0 0 0 1018.9 1018.9 0.0
15/07:30am 13.3 14.2 13.0 98 0.2 CALM 0 0 0 0 1018.9 1018.9 0.0
15/07:00am 10.9 11.1 10.4 97 0.3 CALM 0 0 0 0 1018.7 1018.7 0.0
15/06:30am 10.1 10.0 9.5 96 0.3 CALM 0 0 0 0 1018.5 1018.5 0.0
15/06:00am 10.1 10.0 9.5 96 0.3 CALM 0 0 0 0 1018.3 1018.3 0.0
15/05:30am 10.5 10.5 9.9 96 0.3 CALM 0 0 0 0 1018.1 1018.1 0.0
15/05:00am 10.6 10.6 9.8 95 0.4 CALM 0 0 0 0 1018.1 1018.1 0.0
15/04:30am 11.1 11.2 10.2 94 0.5 CALM 0 0 0 0 1018.0 1018.0 0.0
15/04:00am 11.4 11.6 10.6 95 0.4 CALM 0 0 0 0 1017.9 1017.9 0.0
15/03:30am 11.6 11.8 10.7 94 0.5 CALM 0 0 0 0 1018.0 1018.0 0.0
15/03:00am 11.5 11.7 10.4 93 0.6 CALM 0 0 0 0 1017.8 1017.8 0.0
15/02:30am 12.1 12.4 11.0 93 0.6 CALM 0 0 0 0 1018.0 1018.0 0.0
15/02:00am 12.7 13.1 11.4 92 0.7 CALM 0 0 0 0 1018.2 1018.2 0.0
15/01:30am 13.2 13.8 11.8 91 0.7 CALM 0 0 0 0 1018.5 1018.5 0.0
15/01:00am 14.3 15.0 12.2 87 1.1 CALM 0 6 0 3 1018.6 1018.6 0.0
15/12:30am 15.4 16.1 12.3 82 1.7 CALM 0 0 0 0 1018.7 1018.7 0.0
15/12:00am 16.0 16.1 12.6 80 1.9 WSW 4 6 2 3 1018.8 1018.8 0.0
 
Date/Time
EST
Temp
°C
App
Temp
°C
Dew
Point
Rel
Hum
%
Delta-T
°C
Wind Press
QNH
hPa
Press
MSL
hPa
Rain
since 9 am
mm
Dir
 
Spd
km/h
Gust
km/h
Spd
kts
Gust
kts
14/11:30pm 16.5 17.0 12.8 79 2.1 WSW 2 7 1 4 1018.8 1018.8 0.0
14/11:00pm 16.5 16.7 13.0 80 1.9 SSW 4 11 2 6 1018.8 1018.8 0.0
14/10:30pm 16.6 16.9 13.3 81 1.8 SW 4 6 2 3 1018.8 1018.8 0.0
14/10:00pm 16.8 17.3 13.9 83 1.6 SSW 4 7 2 4 1019.0 1019.0 0.0

Other Formats:

Comma delimited format used in spreadsheet applications
http://www.bom.gov.au/fwo/IDN60801/IDN60801.95767.axf

JavaScript Object Notation format (JSON) in row-major order
http://www.bom.gov.au/fwo/IDN60801/IDN60801.95767.json